Campbellsburg, Indiana
Current Conditions -  °F | °C
As of 9:53 AM on Friday 19 Dec 2014 (Local Time) from KBMG Reporting Station
Clear Clear  
Wind Chill: 23°   Ceiling: Unl
Heat Index: 28°   Visibility: 9mi
Dew Point: 22°   Wind: 5mph
Humidity: 78%   Direction: 10°N
Pressure: 30.29"   Gusts: NA
Location:  38.65°N, 86.26°W
Report Text: KBMG 191453Z 01004KT 9SM CLR M02/M06 A3029 RMK AO2 SLP268 T10221056 50009
Loading
Personal Weather Stations






























Interactive Weather Map New forecast layout! Learn more

10-Day Weather Forecast

Advertisements
Track Severe Weather on mobile